METAR Data
IDs: Format: Raw Decoded Include TAF

Data at: 0424 UTC 20 Oct 2018

PADU 200356Z AUTO 16004KT 10SM BKN046 06/M01 A2948 RMK AO2 SLP987 T00561011
PADU 200256Z 13003KT 10SM OVC043 06/M02 A2949 RMK AO2 SLP990 T00611017 56017
PADU 200156Z 00000KT 10SM OVC055 07/M02 A2950 RMK AO2 SLP995 T00671022
PADU 200056Z 32003KT 10SM BKN050 OVC055 06/M02 A2951 RMK AO2 SLP999 T00611017
PADU 192356Z 00000KT 10SM FEW045 OVC050 06/M01 A2954 RMK AO2 SLP007 T00611011 10067 20044 58020
PADU 192256Z 28007KT 10SM SCT045 OVC050 06/M01 A2956 RMK AO2 SLP013 T00561011
PADU 192156Z 22009KT 10SM OVC050 06/01 A2958 RMK AO2 SLP021 T00560006
PADU 192056Z 21008KT 10SM OVC050 06/01 A2960 RMK AO2 SLP026 T00560011 58006
PADU 191956Z 21006KT 10SM BKN050 BKN070 06/01 A2961 RMK AO2 SLP031 T00560011
PADU 191856Z 20010KT 10SM FEW022 OVC055 05/01 A2962 RMK AO2 SLP034 T00500006
PADU 191756Z 20008KT 10SM OVC049 05/01 A2961 RMK AO2 SLP032 60000 T00500006 10061 20044 58013
PADU 191656Z 20005KT 10SM OVC049 05/01 A2963 RMK AO2 SLP039 T00500006
PADU 191556Z 28004KT 10SM OVC045 06/M01 A2965 RMK AO2 SLP044 T00561006
PADU 191456Z 20008KT 10SM OVC045 06/M01 A2965 RMK AO2 SLP045 60000 T00561006 58018
PADU 191356Z AUTO VRB04KT 10SM OVC047 06/00 A2967 RMK AO2 RAB1257E11 SLP051 P0000 T00560000
PADU 191256Z AUTO 00000KT 10SM BKN037 OVC049 05/00 A2969 RMK AO2 SLP059 T00500000
PADU 191156Z AUTO 15003KT 10SM OVC050 05/M01 A2970 RMK AO2 RAB06E21 SLP062 P0000 60000 70015 T00501006 10067 20044 58016
PADU 191056Z AUTO 00000KT 10SM OVC047 05/00 A2972 RMK AO2 SLP069 T00500000
PADU 190956Z AUTO 20007KT 10SM OVC050 06/00 A2973 RMK AO2 SLP073 T00610000
PADU 190856Z AUTO 25007KT 10SM BKN055 06/M01 A2975 RMK AO2 SLP078 T00611006 400830061 56009
PADU 190756Z AUTO 29007KT 10SM BKN040 OVC050 06/01 A2975 RMK AO2 SLP080 T00610006
PADU 190656Z AUTO 29008KT 10SM OVC050 06/M01 A2976 RMK AO2 SLP083 T00611006
PADU 190556Z AUTO 31009KT 10SM BKN055 07/M02 A2978 RMK AO2 SLP087 60000 T00671017 10072 20061 56007
PADU 190456Z AUTO 30009KT 10SM OVC050 07/M01 A2978 RMK AO2 RAE06 SLP089 P0000 T00671011
PADU 190356Z 31012KT 10SM -RA BKN038 BKN050 06/M01 A2979 RMK AO2 RAB09E26B55 SLP091 P0000 T00611006
PADU 190256Z 32014G21KT 10SM BKN036 BKN050 07/00 A2980 RMK AO2 RAE12 SLP094 P0000 60000 T00670000 56006
PADU 190156Z 36011KT 10SM -RA BKN036 BKN046 06/01 A2980 RMK AO2 RAB51 SLP094 P0000 T00610011
PADU 190056Z 30013G20KT 10SM BKN032 BKN045 07/00 A2980 RMK AO2 SLP097 T00670000
PADU 182356Z 32017G20KT 10SM BKN037 BKN045 07/01 A2981 RMK AO2 RAB25E38 SLP100 P0000 60001 T00720006 10072 20061 58011
PADU 182256Z 31010KT 10SM BKN032 BKN048 07/02 A2984 RMK AO2 SLP108 T00670017
PADU 182156Z 31018KT 10SM BKN032 BKN048 07/01 A2984 RMK AO2 SLP110 T00670006
PADU 182056Z 32017KT 10SM SCT032 BKN042 07/02 A2985 RMK AO2 RAB23E41 SLP111 VCSH S P0001 60001 T00670017 50007
PADU 181956Z 31016KT 10SM FEW030 BKN040 07/01 A2985 RMK AO2 RAB15E31 SLP112 P0000 T00670011
PADU 181856Z 32018KT 10SM FEW036 BKN046 07/01 A2984 RMK AO2 PK WND 32027/1800 SLP108 T00720011
PADU 181756Z 32017G27KT 10SM FEW036 BKN046 07/01 A2983 RMK AO2 PK WND 30027/1750 SLP103 60014 T00720011 10078 20067 51008
PADU 181656Z 31008KT 10SM BKN034 07/01 A2982 RMK AO2 RAE33 SLP102 P0000 T00720011